createdAt,value
2022-11-10T00:00:11.216Z,100227.28
2022-11-10T00:03:18.425Z,100228.59
2022-11-10T00:06:24.883Z,100226.94
2022-11-10T00:09:31.316Z,100225.38
2022-11-10T00:12:38.255Z,100229.50
2022-11-10T00:16:04.306Z,100235.66
2022-11-10T00:19:10.907Z,100231.84
2022-11-10T00:22:17.398Z,100232.94
2022-11-10T00:25:24.374Z,100232.56
2022-11-10T00:28:32.853Z,100226.19
2022-11-10T00:31:41.035Z,100235.38
2022-11-10T00:34:47.360Z,100240.84
2022-11-10T00:37:54.060Z,100242.81
2022-11-10T00:41:02.033Z,100241.53
2022-11-10T00:44:08.645Z,100252.53
2022-11-10T00:47:16.493Z,100252.00
2022-11-10T00:50:23.491Z,100261.06
2022-11-10T00:53:30.244Z,100264.03
2022-11-10T00:56:37.092Z,100269.47
2022-11-10T00:59:43.615Z,100278.28
2022-11-10T01:02:51.684Z,100278.78
2022-11-10T01:05:58.667Z,100283.50
2022-11-10T01:09:05.368Z,100288.84
2022-11-10T01:12:11.960Z,100291.00
2022-11-10T01:15:25.973Z,100300.66
2022-11-10T01:18:49.322Z,100304.66
2022-11-10T01:21:55.930Z,100308.75
2022-11-10T01:25:02.825Z,100301.22
2022-11-10T01:28:09.293Z,100319.75
2022-11-10T01:31:17.767Z,100321.94
2022-11-10T01:34:25.492Z,100332.34
2022-11-10T01:37:31.868Z,100334.00
2022-11-10T01:40:38.373Z,100334.66
2022-11-10T01:43:44.675Z,100338.31
2022-11-10T01:46:51.301Z,100330.09
2022-11-10T01:49:59.541Z,100337.97
2022-11-10T01:53:10.266Z,100349.31
2022-11-10T01:56:17.927Z,100348.44
2022-11-10T01:59:28.572Z,100356.63
2022-11-10T02:02:42.042Z,100355.00
2022-11-10T02:05:50.620Z,100361.50
2022-11-10T02:08:59.301Z,100366.69
2022-11-10T02:12:07.008Z,100364.09
2022-11-10T02:15:16.540Z,100363.75
2022-11-10T02:18:23.058Z,100363.22
2022-11-10T02:21:30.638Z,100367.03
2022-11-10T02:24:37.054Z,100364.59
2022-11-10T02:27:43.655Z,100371.28
2022-11-10T02:30:50.747Z,100370.16
2022-11-10T02:33:57.425Z,100374.22
2022-11-10T02:37:05.506Z,100384.75
2022-11-10T02:40:12.595Z,100389.91
2022-11-10T02:43:20.824Z,100389.91
2022-11-10T02:46:27.560Z,100384.84
2022-11-10T02:49:34.267Z,100379.19
2022-11-10T02:52:41.992Z,100388.28
2022-11-10T02:55:48.617Z,100384.66
2022-11-10T02:58:55.097Z,100395.88
2022-11-10T03:02:01.418Z,100390.94
2022-11-10T03:05:08.334Z,100393.50
2022-11-10T03:08:16.371Z,100406.00
2022-11-10T03:11:23.572Z,100395.19
2022-11-10T03:14:32.131Z,100401.97
2022-11-10T03:17:38.512Z,100406.75
2022-11-10T03:20:48.480Z,100406.31
2022-11-10T03:23:56.197Z,100394.44
2022-11-10T03:27:02.792Z,100405.94
2022-11-10T03:30:10.175Z,100424.94
2022-11-10T03:33:16.529Z,100422.66
2022-11-10T03:36:22.845Z,100430.94
2022-11-10T03:39:30.824Z,100445.09
2022-11-10T03:42:37.372Z,100349.47
2022-11-10T03:45:45.154Z,100444.59
2022-11-10T03:48:53.665Z,100443.75
2022-11-10T03:52:00.585Z,100445.84
2022-11-10T03:55:09.084Z,100458.94
2022-11-10T03:58:15.459Z,100466.56
2022-11-10T04:01:23.681Z,100470.66
2022-11-10T04:04:47.535Z,100476.91
2022-11-10T04:08:15.563Z,100481.94
2022-11-10T04:11:37.534Z,100471.09
2022-11-10T04:15:01.413Z,100500.44
2022-11-10T04:18:24.604Z,100498.34
2022-11-10T04:21:31.317Z,100500.25
2022-11-10T04:24:37.967Z,100512.22
2022-11-10T04:27:45.840Z,100507.22
2022-11-10T04:30:52.325Z,100518.28
2022-11-10T04:33:59.489Z,100506.06
2022-11-10T04:37:05.835Z,100519.19
2022-11-10T04:40:12.715Z,100517.25
2022-11-10T04:43:20.814Z,100525.38
2022-11-10T04:46:29.011Z,100532.09
2022-11-10T04:49:35.424Z,100536.78
2022-11-10T04:52:42.026Z,100539.72
2022-11-10T04:55:48.606Z,100550.06
2022-11-10T04:58:57.120Z,100551.97
2022-11-10T05:02:03.455Z,100543.97
2022-11-10T05:05:11.482Z,100533.53
2022-11-10T05:08:17.818Z,100543.63
2022-11-10T05:11:24.104Z,100546.28
2022-11-10T05:14:31.942Z,100549.53
2022-11-10T05:17:38.319Z,100544.22
2022-11-10T05:20:44.661Z,100553.69
2022-11-10T05:23:51.329Z,100555.81
2022-11-10T05:26:57.869Z,100544.28
2022-11-10T05:30:06.940Z,100568.91
2022-11-10T05:33:13.552Z,100585.69
2022-11-10T05:36:20.255Z,100582.66
2022-11-10T05:39:27.023Z,100587.56
2022-11-10T05:42:33.448Z,100588.41
2022-11-10T05:45:41.336Z,100599.41
2022-11-10T05:48:48.126Z,100598.72
2022-11-10T05:51:54.891Z,100618.56
2022-11-10T05:55:01.575Z,100625.13
2022-11-10T05:58:08.732Z,100629.97
2022-11-10T06:01:16.641Z,100636.09
2022-11-10T06:04:23.267Z,100644.53
2022-11-10T06:07:30.037Z,100663.47
2022-11-10T06:10:37.424Z,100668.94
2022-11-10T06:13:44.173Z,100674.09
2022-11-10T06:16:52.383Z,100675.09
2022-11-10T06:19:58.914Z,100675.78
2022-11-10T06:23:07.027Z,100679.16
2022-11-10T06:26:13.548Z,100684.47
2022-11-10T06:29:25.535Z,100685.22
2022-11-10T06:32:36.101Z,100706.94
2022-11-10T06:35:42.511Z,100710.06
2022-11-10T06:38:49.157Z,100721.16
2022-11-10T06:41:55.637Z,100732.44
2022-11-10T06:45:02.422Z,100708.34
2022-11-10T06:48:13.148Z,100741.72
2022-11-10T06:51:19.776Z,100740.28
2022-11-10T06:54:26.245Z,100754.22
2022-11-10T06:57:38.700Z,100754.06
2022-11-10T07:00:45.194Z,100764.16
2022-11-10T07:04:12.995Z,100779.53
2022-11-10T07:06:51.829Z,100785.06
2022-11-10T07:09:38.609Z,100795.00
2022-11-10T07:12:24.775Z,100805.03
2022-11-10T07:15:11.687Z,100803.31
2022-11-10T07:17:58.045Z,100804.53
2022-11-10T07:20:46.090Z,100809.69
2022-11-10T07:23:33.471Z,100806.59
2022-11-10T07:26:19.843Z,100804.88
2022-11-10T07:29:06.299Z,100797.13
2022-11-10T07:31:53.539Z,100811.09
2022-11-10T07:34:39.848Z,100811.16
2022-11-10T07:37:27.351Z,100823.41
2022-11-10T07:40:13.891Z,100826.63
2022-11-10T07:43:00.516Z,100827.41
2022-11-10T07:45:46.892Z,100847.31
2022-11-10T07:48:33.320Z,100830.75
2022-11-10T07:51:19.730Z,100844.84
2022-11-10T07:54:07.429Z,100854.97
2022-11-10T07:56:54.098Z,100856.13
2022-11-10T07:59:40.603Z,100861.19
2022-11-10T08:02:26.758Z,100858.75
2022-11-10T08:05:13.374Z,100865.16
2022-11-10T08:08:00.059Z,100875.34
2022-11-10T08:10:47.797Z,100874.97
2022-11-10T08:13:34.087Z,100884.31
2022-11-10T08:16:20.387Z,100885.81
2022-11-10T08:19:06.397Z,100885.38
2022-11-10T08:21:52.534Z,100880.84
2022-11-10T08:24:39.050Z,100878.16
2022-11-10T08:27:26.746Z,100884.28
2022-11-10T08:30:13.908Z,100890.13
2022-11-10T08:33:02.305Z,100892.16
2022-11-10T08:35:51.560Z,100895.63
2022-11-10T08:38:37.952Z,100899.63
2022-11-10T08:41:24.487Z,100902.88
2022-11-10T08:44:15.556Z,100909.00
2022-11-10T08:47:06.189Z,100920.09
2022-11-10T08:49:52.279Z,100913.75
2022-11-10T08:52:38.303Z,100932.50
2022-11-10T08:55:24.875Z,100914.38
2022-11-10T08:58:13.963Z,100922.91
2022-11-10T09:01:01.474Z,100924.97
2022-11-10T09:03:48.027Z,100925.75
2022-11-10T09:06:34.289Z,100935.84
2022-11-10T09:09:20.637Z,100938.88
2022-11-10T09:12:07.186Z,100939.84
2022-11-10T09:14:53.737Z,100935.44
2022-11-10T09:17:42.261Z,100951.13
2022-11-10T09:20:29.490Z,100961.00
2022-11-10T09:23:19.191Z,100957.94
2022-11-10T09:26:06.995Z,100968.66
2022-11-10T09:28:53.302Z,100976.59
2022-11-10T09:31:39.703Z,100987.31
2022-11-10T09:34:27.477Z,100967.78
2022-11-10T09:37:13.915Z,100986.47
2022-11-10T09:40:01.580Z,100982.38
2022-11-10T09:42:48.852Z,100985.66
2022-11-10T09:45:40.678Z,100981.41
2022-11-10T09:48:30.282Z,100986.66
2022-11-10T09:51:22.862Z,100980.78
2022-11-10T09:54:24.807Z,100991.59
2022-11-10T09:57:14.352Z,100996.28
2022-11-10T10:00:00.837Z,100997.13
2022-11-10T10:02:52.102Z,100992.84
2022-11-10T10:05:51.491Z,100989.97
2022-11-10T10:08:49.337Z,100987.13
2022-11-10T10:11:49.422Z,100985.41
2022-11-10T10:14:52.481Z,100997.38
2022-11-10T10:17:46.088Z,100995.03
2022-11-10T10:20:39.613Z,101001.06
2022-11-10T10:24:02.080Z,101009.13
2022-11-10T10:26:45.763Z,101002.81
2022-11-10T10:29:38.317Z,101008.00
2022-11-10T10:32:24.757Z,101011.78
2022-11-10T10:35:15.235Z,101010.31
2022-11-10T10:38:03.802Z,101004.44
2022-11-10T10:40:52.676Z,101005.53
2022-11-10T10:43:41.320Z,100996.53
2022-11-10T10:46:32.927Z,100999.41
2022-11-10T10:49:31.436Z,100976.69
2022-11-10T10:52:24.616Z,101007.78
2022-11-10T10:55:14.381Z,101012.78
2022-11-10T10:58:03.120Z,101008.63
2022-11-10T11:00:53.017Z,101002.78
2022-11-10T11:03:44.024Z,101005.56
2022-11-10T11:06:32.074Z,100980.41
2022-11-10T11:09:20.838Z,101001.59
2022-11-10T11:12:08.772Z,101004.81
2022-11-10T11:15:13.548Z,100997.91
2022-11-10T11:18:02.722Z,101011.50
2022-11-10T11:20:56.329Z,101003.19
2022-11-10T11:23:53.223Z,101006.94
2022-11-10T11:26:49.789Z,101002.94
2022-11-10T11:29:54.664Z,101016.59
2022-11-10T11:33:07.158Z,101013.00
2022-11-10T11:35:59.199Z,101001.44
2022-11-10T11:38:54.520Z,100997.44
2022-11-10T11:41:47.611Z,101007.47
2022-11-10T11:44:46.684Z,101007.38
2022-11-10T11:47:46.873Z,101011.13
2022-11-10T11:50:41.227Z,101015.50
2022-11-10T11:53:43.768Z,101014.56
2022-11-10T11:56:33.956Z,101017.81
2022-11-10T11:59:39.847Z,101016.44
2022-11-10T12:03:04.654Z,101016.03
2022-11-10T12:06:04.232Z,101033.41
2022-11-10T12:09:01.636Z,101024.59
2022-11-10T12:12:03.593Z,101033.94
2022-11-10T12:15:00.664Z,101019.81
2022-11-10T12:17:54.820Z,101020.97
2022-11-10T12:20:52.944Z,101023.19
2022-11-10T12:23:51.931Z,101024.81
2022-11-10T12:26:46.286Z,101024.69
2022-11-10T12:29:37.734Z,101033.69
2022-11-10T12:32:29.197Z,101029.28
2022-11-10T12:35:18.882Z,101025.28
2022-11-10T12:38:09.859Z,101020.84
2022-11-10T12:41:03.770Z,101013.09
2022-11-10T12:44:03.446Z,101013.28
2022-11-10T12:46:54.833Z,101024.72
2022-11-10T12:49:48.375Z,101023.84
2022-11-10T12:52:40.273Z,101025.38
2022-11-10T12:55:34.486Z,101025.16
2022-11-10T12:58:22.753Z,101018.50
2022-11-10T13:01:15.925Z,101024.03
2022-11-10T13:04:02.893Z,101039.38
2022-11-10T13:06:51.501Z,101039.41
2022-11-10T13:09:40.828Z,101044.25
2022-11-10T13:12:27.305Z,101025.03
2022-11-10T13:15:50.805Z,101027.78
2022-11-10T13:19:02.007Z,101035.34
2022-11-10T13:22:11.502Z,101037.56
2022-11-10T13:25:31.020Z,101041.75
2022-11-10T13:28:55.724Z,101047.78
2022-11-10T13:31:52.231Z,101032.19
2022-11-10T13:34:39.138Z,101052.03
2022-11-10T13:37:50.279Z,101046.69
2022-11-10T13:40:37.909Z,101048.63
2022-11-10T13:43:27.290Z,101055.38
2022-11-10T13:46:14.177Z,101055.47
2022-11-10T13:49:16.998Z,101051.88
2022-11-10T13:52:14.873Z,101051.13
2022-11-10T13:55:16.606Z,101046.41
2022-11-10T13:58:06.207Z,101054.00
2022-11-10T14:01:28.053Z,101058.19
2022-11-10T14:04:42.302Z,101059.81
2022-11-10T14:07:31.058Z,101062.19
2022-11-10T14:10:20.849Z,101063.31
2022-11-10T14:13:14.873Z,101029.25
2022-11-10T14:16:02.295Z,101049.88
2022-11-10T14:18:58.786Z,101031.81
2022-11-10T14:21:52.791Z,101007.78
2022-11-10T14:24:50.361Z,101065.59
2022-11-10T14:27:39.386Z,101049.06
2022-11-10T14:30:26.929Z,101067.69
2022-11-10T14:33:15.917Z,101060.19
2022-11-10T14:36:04.768Z,101069.66
2022-11-10T14:38:53.717Z,101072.38
2022-11-10T14:41:46.965Z,101063.91
2022-11-10T14:44:35.410Z,101072.81
2022-11-10T14:47:27.383Z,101077.03
2022-11-10T14:50:19.637Z,101075.56
2022-11-10T14:53:13.432Z,101072.44
2022-11-10T14:56:03.819Z,101072.38
2022-11-10T14:58:51.116Z,101074.13
2022-11-10T15:01:39.619Z,101070.94
2022-11-10T15:04:29.756Z,101074.41
2022-11-10T15:07:17.752Z,101086.16
2022-11-10T15:10:15.168Z,101087.06
2022-11-10T15:13:05.757Z,101099.38
2022-11-10T15:15:53.566Z,101101.88
2022-11-10T15:18:39.765Z,101107.25
2022-11-10T15:21:30.303Z,101097.44
2022-11-10T15:24:17.056Z,101101.34
2022-11-10T15:27:03.214Z,101105.13
2022-11-10T15:29:51.914Z,101105.88
2022-11-10T15:32:48.861Z,101091.63
2022-11-10T15:35:35.180Z,101098.94
2022-11-10T15:38:28.251Z,101102.28
2022-11-10T15:41:16.864Z,101093.38
2022-11-10T15:44:19.943Z,101099.44
2022-11-10T15:47:13.415Z,101099.06
2022-11-10T15:50:01.181Z,101096.91
2022-11-10T15:52:47.490Z,101093.25
2022-11-10T15:55:35.394Z,101100.66
2022-11-10T15:58:23.827Z,101102.81
2022-11-10T16:01:12.610Z,101080.53
2022-11-10T16:04:00.467Z,101115.28
2022-11-10T16:06:47.141Z,101117.53
2022-11-10T16:09:33.545Z,101123.78
2022-11-10T16:12:21.622Z,101129.28
2022-11-10T16:15:15.918Z,101125.19
2022-11-10T16:18:02.351Z,101137.56
2022-11-10T16:20:51.543Z,101132.94
2022-11-10T16:23:37.636Z,101131.88
2022-11-10T16:26:26.243Z,101137.00
2022-11-10T16:29:15.674Z,101141.78
2022-11-10T16:32:01.713Z,101140.72
2022-11-10T16:34:48.292Z,101147.34
2022-11-10T16:37:36.139Z,101140.75
2022-11-10T16:40:24.075Z,101138.78
2022-11-10T16:43:16.488Z,101151.53
2022-11-10T16:46:05.741Z,101156.84
2022-11-10T16:48:54.240Z,101151.50
2022-11-10T16:51:48.310Z,101148.41
2022-11-10T16:54:36.823Z,101153.81
2022-11-10T16:57:23.346Z,101152.09
2022-11-10T17:00:11.355Z,101160.34
2022-11-10T17:03:08.583Z,101158.28
2022-11-10T17:05:55.252Z,101163.91
2022-11-10T17:08:42.222Z,101158.53
2022-11-10T17:11:29.898Z,101169.97
2022-11-10T17:14:16.505Z,101167.22
2022-11-10T17:17:03.331Z,101163.09
2022-11-10T17:19:51.052Z,101171.25
2022-11-10T17:22:37.293Z,101166.22
2022-11-10T17:25:26.919Z,101173.28
2022-11-10T17:28:16.240Z,101172.50
2022-11-10T17:31:03.195Z,101174.56
2022-11-10T17:33:49.111Z,101185.78
2022-11-10T17:36:35.617Z,101189.22
2022-11-10T17:39:22.472Z,101194.22
2022-11-10T17:42:12.857Z,101200.84
2022-11-10T17:45:00.313Z,101188.00
2022-11-10T17:47:47.195Z,101200.63
2022-11-10T17:50:34.396Z,101193.50
2022-11-10T17:53:23.326Z,101199.22
2022-11-10T17:56:09.945Z,101210.31
2022-11-10T17:58:56.002Z,101214.41
2022-11-10T18:01:43.514Z,101206.16
2022-11-10T18:04:29.906Z,101206.78
2022-11-10T18:07:16.269Z,101207.28
2022-11-10T18:10:02.232Z,101209.56
2022-11-10T18:12:48.469Z,101214.03
2022-11-10T18:15:34.887Z,101225.88
2022-11-10T18:18:22.653Z,101218.78
2022-11-10T18:21:09.453Z,101220.19
2022-11-10T18:23:55.677Z,101230.91
2022-11-10T18:26:42.541Z,101225.41
2022-11-10T18:29:28.510Z,101215.88
2022-11-10T18:32:15.237Z,101193.91
2022-11-10T18:35:03.036Z,101224.75
2022-11-10T18:37:49.383Z,101220.97
2022-11-10T18:40:35.388Z,101228.88
2022-11-10T18:43:22.102Z,101235.78
2022-11-10T18:46:09.161Z,101225.50
2022-11-10T18:48:55.388Z,101220.66
2022-11-10T18:51:43.242Z,101222.47
2022-11-10T18:54:29.342Z,101233.19
2022-11-10T18:57:16.598Z,101226.09
2022-11-10T19:00:03.880Z,101235.66
2022-11-10T19:02:50.161Z,101237.63
2022-11-10T19:05:38.519Z,101236.53
2022-11-10T19:08:28.078Z,101240.09
2022-11-10T19:11:16.671Z,101240.72
2022-11-10T19:14:02.939Z,101240.09
2022-11-10T19:16:49.177Z,101236.66
2022-11-10T19:19:35.658Z,101124.88
2022-11-10T19:22:22.144Z,101235.59
2022-11-10T19:25:10.356Z,101234.97
2022-11-10T19:27:56.915Z,101241.94
2022-11-10T19:30:43.558Z,101253.88
2022-11-10T19:33:30.978Z,101259.22
2022-11-10T19:36:19.821Z,101262.13
2022-11-10T19:39:06.323Z,101258.91
2022-11-10T19:41:53.882Z,101257.09
2022-11-10T19:44:40.336Z,101270.81
2022-11-10T19:47:27.037Z,101233.72
2022-11-10T19:50:13.443Z,101287.00
2022-11-10T19:52:59.924Z,101286.22
2022-11-10T19:55:46.140Z,101244.44
2022-11-10T19:58:36.984Z,101308.94
2022-11-10T20:01:24.064Z,101309.94
2022-11-10T20:04:12.398Z,101310.44
2022-11-10T20:07:12.736Z,101322.66
2022-11-10T20:10:00.193Z,101314.25
2022-11-10T20:12:46.610Z,101325.53
2022-11-10T20:15:35.023Z,101328.47
2022-11-10T20:18:21.219Z,101323.50
2022-11-10T20:21:09.339Z,101308.03
2022-11-10T20:23:56.932Z,101289.00
2022-11-10T20:26:43.183Z,101291.09
2022-11-10T20:29:29.522Z,101298.03
2022-11-10T20:32:17.393Z,101314.97
2022-11-10T20:35:04.101Z,101298.66
2022-11-10T20:37:50.538Z,101303.16
2022-11-10T20:40:45.029Z,101298.66
2022-11-10T20:43:34.412Z,101299.97
2022-11-10T20:46:48.246Z,101297.06
2022-11-10T20:49:30.280Z,101297.69
2022-11-10T20:52:16.954Z,101291.41
2022-11-10T20:55:05.211Z,101295.75
2022-11-10T20:57:52.082Z,101299.09
2022-11-10T21:00:38.230Z,101295.75
2022-11-10T21:03:45.046Z,101294.47
2022-11-10T21:06:53.088Z,101297.97
2022-11-10T21:09:59.767Z,101300.53
2022-11-10T21:13:06.210Z,101300.41
2022-11-10T21:16:12.552Z,101292.50
2022-11-10T21:19:19.207Z,101302.19
2022-11-10T21:22:27.140Z,101302.66
2022-11-10T21:25:33.599Z,101303.78
2022-11-10T21:28:40.200Z,101304.94
2022-11-10T21:31:47.032Z,101316.69
2022-11-10T21:34:53.283Z,101322.66
2022-11-10T21:38:01.306Z,101314.91
2022-11-10T21:41:07.874Z,101319.25
2022-11-10T21:44:14.280Z,101309.59
2022-11-10T21:47:21.063Z,101308.53
2022-11-10T21:50:28.265Z,101304.97
2022-11-10T21:53:38.963Z,101299.19
2022-11-10T21:56:45.475Z,101304.19
2022-11-10T21:59:52.056Z,101297.44
2022-11-10T22:02:59.307Z,101300.78
2022-11-10T22:06:07.079Z,101301.75
2022-11-10T22:09:35.694Z,101290.97
2022-11-10T22:13:00.386Z,101285.81
2022-11-10T22:16:38.139Z,101287.91
2022-11-10T22:19:45.376Z,101274.34
2022-11-10T22:22:52.142Z,101284.63
2022-11-10T22:26:00.089Z,101295.59
2022-11-10T22:29:06.547Z,101300.13
2022-11-10T22:32:13.166Z,101302.25
2022-11-10T22:35:33.572Z,101304.00
2022-11-10T22:38:41.554Z,101302.91
2022-11-10T22:42:07.282Z,101307.44
2022-11-10T22:45:13.949Z,101314.03
2022-11-10T22:48:29.702Z,101308.38
2022-11-10T22:51:37.541Z,101314.22
2022-11-10T22:54:44.496Z,101314.69
2022-11-10T22:57:53.930Z,101312.75
2022-11-10T23:01:05.751Z,101296.47
2022-11-10T23:04:12.282Z,101305.03
2022-11-10T23:07:19.005Z,101302.91
2022-11-10T23:10:25.324Z,101301.81
2022-11-10T23:13:34.096Z,101289.91
2022-11-10T23:16:40.797Z,101289.72
2022-11-10T23:19:47.220Z,101290.88
2022-11-10T23:22:56.192Z,101300.84
2022-11-10T23:26:04.763Z,101284.44
2022-11-10T23:29:12.495Z,101306.47
2022-11-10T23:32:18.984Z,101298.13
2022-11-10T23:35:25.732Z,101301.78
2022-11-10T23:38:34.087Z,101300.84
2022-11-10T23:41:40.596Z,101306.81
2022-11-10T23:44:48.643Z,101305.50
2022-11-10T23:47:55.183Z,101303.09
2022-11-10T23:51:01.781Z,101288.59
2022-11-10T23:54:08.204Z,101307.59
2022-11-10T23:57:14.628Z,101316.13
